.
WxDataArchive / Data Records for 2007-03-30
2007-03-29 March 2007 2007-03-31

Data Records for Friday, 30 March 2007

Time	Temp	Chill	HIndex	Humid	Dewpt	 Wind 	HiWind	WindDir	Rain 	Barom 
-----	----	-----	------	-----	-----	------	------	-------	-----	----- 
00:00	39.8	39.8	39.8	61	27.5	1	3	90	0.00	30.346 
00:05	39.6	39.6	39.6	61	27.3	1	4	90	0.00	30.344 
00:10	39.5	39.5	39.5	61	27.2	2	9	90	0.00	30.343 
00:15	39.5	39.5	39.5	62	27.6	3	7	112	0.00	30.341 
00:20	39.3	39.3	39.3	62	27.4	2	4	112	0.00	30.336 
00:25	39.3	39.3	39.3	62	27.4	2	5	90	0.00	30.335 
00:30	39.2	39.2	39.2	62	27.3	1	4	90	0.00	30.335 
00:35	39.1	39.1	39.1	62	27.2	2	4	112	0.00	30.339 
00:40	39.1	39.1	39.1	63	27.6	0	3	112	0.00	30.345 
00:45	38.9	38.9	38.9	62	27.0	0	3	112	0.00	30.346 
00:50	38.9	38.9	38.9	62	27.0	1	2	112	0.00	30.345 
00:55	38.8	38.8	38.8	63	27.3	0	2	112	0.00	30.341 
01:00	38.6	38.6	38.6	63	27.1	1	3	112	0.00	30.337 
01:05	38.6	38.6	38.6	64	27.5	0	2	112	0.00	30.334 
01:10	38.5	38.5	38.5	65	27.8	1	2	112	0.00	30.333 
01:15	38.5	38.5	38.5	65	27.8	1	3	112	0.00	30.331 
01:20	38.3	38.3	38.3	65	27.6	1	3	112	0.00	30.332 
01:25	38.3	38.3	38.3	65	27.6	1	3	112	0.00	30.332 
01:30	38.2	38.2	38.2	66	27.9	0	2	90	0.00	30.330 
01:35	38.2	38.2	38.2	66	27.9	0	3	90	0.00	30.330 
01:40	38.0	38.0	38.0	66	27.7	0	2	90	0.00	30.331 
01:45	37.9	37.9	37.9	66	27.6	1	3	68	0.00	30.330 
01:50	37.9	37.9	37.9	66	27.6	1	3	90	0.00	30.329 
01:55	37.9	37.9	37.9	66	27.6	1	3	90	0.00	30.329 
02:00	37.9	37.9	37.9	66	27.6	0	1	90	0.00	30.332 
02:05	37.8	37.8	37.8	66	27.5	0	3	90	0.00	30.329 
02:10	37.8	37.8	37.8	66	27.5	0	3	90	0.00	30.324 
02:15	37.8	37.8	37.8	67	27.8	2	4	112	0.00	30.319 
02:20	37.8	37.8	37.8	67	27.8	1	3	90	0.00	30.318 
02:25	37.8	37.8	37.8	68	28.2	1	4	90	0.00	30.318 
02:30	37.6	37.6	37.6	68	28.0	1	3	135	0.00	30.320 
02:35	37.6	37.6	37.6	68	28.0	1	4	112	0.00	30.318 
02:40	37.6	37.6	37.6	68	28.0	2	5	112	0.00	30.316 
02:45	37.6	37.6	37.6	68	28.0	0	3	112	0.00	30.318 
02:50	37.6	37.6	37.6	69	28.4	1	3	112	0.00	30.316 
02:55	37.6	37.6	37.6	69	28.4	1	3	112	0.00	30.315 
03:00	37.5	37.5	37.5	69	28.3	1	2	112	0.00	30.314 
03:05	37.5	37.5	37.5	69	28.3	1	3	90	0.00	30.315 
03:10	37.5	37.5	37.5	69	28.3	0	2	90	0.00	30.314 
03:15	37.3	37.3	37.3	70	28.4	1	4	90	0.00	30.309 
03:20	37.3	37.3	37.3	70	28.4	1	4	112	0.00	30.311 
03:25	37.2	37.2	37.2	70	28.3	0	2	112	0.00	30.312 
03:30	37.0	37.0	37.0	71	28.5	0	2	112	0.00	30.310 
03:35	37.0	37.0	37.0	71	28.5	1	2	112	0.00	30.307 
03:40	37.0	37.0	37.0	71	28.5	1	3	112	0.00	30.305 
03:45	37.0	37.0	37.0	72	28.8	1	2	112	0.00	30.301 
03:50	36.9	36.9	36.9	72	28.7	1	3	112	0.00	30.298 
03:55	36.9	36.9	36.9	72	28.7	1	3	90	0.00	30.298 
04:00	36.9	36.9	36.9	73	29.1	1	3	112	0.00	30.300 
04:05	36.9	36.9	36.9	72	28.7	1	3	112	0.00	30.302 
04:10	36.9	36.9	36.9	72	28.7	1	4	135	0.00	30.301 
04:15	36.9	36.9	36.9	73	29.1	1	3	112	0.00	30.301 
04:20	36.9	36.9	36.9	73	29.1	1	3	112	0.00	30.301 
04:25	36.8	36.8	36.8	73	29.0	0	2	112	0.00	30.303 
04:30	36.8	36.8	36.8	73	29.0	1	3	112	0.00	30.302 
04:35	36.8	36.8	36.8	73	29.0	0	2	68	0.00	30.301 
04:40	36.8	36.8	36.8	73	29.0	1	4	68	0.00	30.301 
04:45	36.9	36.9	36.9	72	28.7	1	3	68	0.00	30.301 
04:50	36.9	36.9	36.9	72	28.7	0	2	68	0.00	30.301 
04:55	36.9	36.9	36.9	72	28.7	0	1	68	0.00	30.299 
05:00	37.0	37.0	37.0	73	29.2	0	1	68	0.00	30.298 
05:05	37.0	37.0	37.0	73	29.2	0	3	90	0.00	30.300 
05:10	37.0	37.0	37.0	73	29.2	0	2	112	0.00	30.298 
05:15	37.0	37.0	37.0	73	29.2	0	3	112	0.00	30.302 
05:20	37.0	37.0	37.0	73	29.2	0	2	112	0.00	30.302 
05:25	37.0	37.0	37.0	74	29.5	0	1	112	0.00	30.301 
05:30	37.0	37.0	37.0	74	29.5	0	1	112	0.00	30.300 
05:35	37.0	37.0	37.0	74	29.5	0	2	112	0.00	30.299 
05:40	37.0	37.0	37.0	74	29.5	1	3	112	0.00	30.298 
05:45	37.2	37.2	37.2	74	29.7	1	4	90	0.00	30.295 
05:50	37.2	37.2	37.2	74	29.7	1	3	90	0.00	30.293 
05:55	37.2	37.2	37.2	74	29.7	1	3	90	0.00	30.298 
06:00	37.2	37.2	37.2	74	29.7	1	2	112	0.00	30.298 
06:05	37.3	37.3	37.3	74	29.8	2	5	68	0.00	30.301 
06:10	37.3	37.3	37.3	74	29.8	2	4	90	0.00	30.302 
06:15	37.3	37.3	37.3	74	29.8	0	2	90	0.00	30.303 
06:20	37.2	37.2	37.2	74	29.7	0	1	90	0.00	30.305 
06:25	37.2	37.2	37.2	75	30.0	0	1	90	0.00	30.306 
06:30	37.0	37.0	37.0	75	29.8	0	2	90	0.00	30.307 
06:35	37.0	37.0	37.0	75	29.8	1	2	90	0.00	30.307 
06:40	37.0	37.0	37.0	76	30.2	1	3	90	0.00	30.307 
06:45	37.0	37.0	37.0	77	30.5	1	3	90	0.00	30.307 
06:50	37.2	37.2	37.2	77	30.7	1	3	90	0.00	30.308 
06:55	37.2	37.2	37.2	77	30.7	0	2	90	0.00	30.308 
07:00	37.5	37.5	37.5	77	31.0	1	2	90	0.00	30.308 
07:05	37.8	37.8	37.8	76	30.9	2	6	90	0.00	30.310 
07:10	38.0	38.0	38.0	76	31.1	2	5	90	0.00	30.309 
07:15	38.3	38.3	38.3	75	31.1	2	5	112	0.00	30.309 
07:20	38.8	38.8	38.8	75	31.6	3	7	112	0.00	30.308 
07:25	39.2	39.2	39.2	74	31.6	2	7	112	0.00	30.311 
07:30	39.6	39.6	39.6	73	31.7	3	7	90	0.00	30.307 
07:35	40.1	40.1	40.1	73	32.2	1	3	90	0.00	30.309 
07:40	40.5	40.5	40.5	72	32.2	1	4	45	0.00	30.309 
07:45	41.1	41.1	41.1	71	32.4	2	4	112	0.00	30.308 
07:50	41.3	41.3	41.3	70	32.3	2	5	112	0.00	30.306 
07:55	41.3	38.8	41.3	70	32.3	4	7	112	0.00	30.306 
08:00	41.3	41.3	41.3	70	32.3	2	6	112	0.00	30.305 
08:05	41.6	41.6	41.6	71	32.9	3	6	112	0.00	30.307 
08:10	41.9	41.9	41.9	71	33.2	3	6	112	0.00	30.305 
08:15	42.3	42.3	42.3	70	33.2	2	4	112	0.00	30.304 
08:20	42.6	42.6	42.6	69	33.2	3	7	112	0.00	30.300 
08:25	42.9	42.9	42.9	68	33.1	3	7	90	0.00	30.297 
08:30	43.2	43.2	43.2	69	33.7	3	7	112	0.00	30.295 
08:35	43.6	43.6	43.6	67	33.4	3	6	112	0.00	30.293 
08:40	44.1	42.1	44.1	67	33.9	4	6	112	0.00	30.292 
08:45	44.6	44.6	44.6	66	34.0	3	5	112	0.00	30.290 
08:50	45.1	45.1	45.1	64	33.7	3	5	112	0.00	30.291 
08:55	45.7	45.7	45.7	65	34.6	3	5	112	0.00	30.293 
09:00	46.4	46.4	46.4	62	34.1	2	4	112	0.00	30.292 
09:05	47.1	47.1	47.1	62	34.8	2	5	90	0.00	30.294 
09:10	47.6	47.6	47.6	63	35.6	2	4	112	0.00	30.296 
09:15	48.2	48.2	48.2	60	35.0	1	4	90	0.00	30.297 
09:20	48.8	48.8	48.8	61	36.0	2	4	90	0.00	30.299 
09:25	49.2	49.2	49.2	58	35.1	1	4	112	0.00	30.302 
09:30	49.2	49.2	49.2	58	35.1	2	4	112	0.00	30.298 
09:35	49.8	49.8	49.8	59	36.1	1	4	68	0.00	30.295 
09:40	50.4	50.4	50.4	57	35.7	1	4	90	0.00	30.295 
09:45	51.1	51.1	51.1	60	37.7	0	2	90	0.00	30.294 
09:50	52.0	52.0	52.0	58	37.7	1	3	135	0.00	30.292 
09:55	52.9	52.9	52.9	54	36.7	2	4	135	0.00	30.288 
10:00	53.2	53.2	53.2	53	36.5	1	5	112	0.00	30.285 
10:05	53.8	53.8	53.8	56	38.5	1	4	112	0.00	30.285 
10:10	54.4	54.4	54.4	53	37.6	2	5	90	0.00	30.285 
10:15	54.5	54.5	54.5	54	38.2	3	6	90	0.00	30.282 
10:20	54.8	54.8	54.8	51	37.0	2	5	112	0.00	30.279 
10:25	55.4	55.4	55.4	49	36.6	2	5	112	0.00	30.275 
10:30	55.4	55.4	55.4	48	36.0	3	5	112	0.00	30.275 
10:35	55.7	55.7	55.7	51	37.9	2	5	112	0.00	30.272 
10:40	56.0	56.0	56.0	50	37.6	3	6	112	0.00	30.270 
10:45	56.5	56.5	56.5	50	38.1	2	5	90	0.00	30.271 
10:50	56.7	56.7	56.7	51	38.8	1	5	90	0.00	30.269 
10:55	57.0	57.0	57.0	47	37.0	2	6	68	0.00	30.267 
11:00	57.6	57.6	57.6	47	37.5	2	5	112	0.00	30.265 
11:05	57.8	57.8	57.8	49	38.8	2	6	112	0.00	30.263 
11:10	58.4	58.4	58.4	48	38.8	1	4	112	0.00	30.258 
11:15	59.2	59.2	59.2	47	39.0	1	5	112	0.00	30.256 
11:20	59.6	59.6	59.6	48	39.9	3	5	112	0.00	30.251 
11:25	60.2	60.2	60.2	46	39.3	1	3	90	0.00	30.250 
11:30	60.7	60.7	60.7	42	37.5	2	5	90	0.00	30.250 
11:35	61.2	61.2	61.2	46	40.3	1	4	90	0.00	30.249 
11:40	61.5	61.5	61.5	41	37.6	2	4	90	0.00	30.247 
11:45	62.0	62.0	62.0	44	39.8	1	3	112	0.00	30.243 
11:50	62.9	62.9	62.9	45	41.2	1	3	112	0.00	30.238 
11:55	63.1	63.1	63.1	41	39.0	3	5	112	0.00	30.234 
12:00	63.5	63.5	63.5	41	39.4	1	5	90	0.00	30.233 
12:05	64.0	64.0	64.0	40	39.2	2	5	90	0.00	30.231 
12:10	64.5	64.5	64.5	42	40.9	1	4	90	0.00	30.231 
12:15	64.7	64.7	64.7	40	39.8	2	5	112	0.00	30.227 
12:20	65.2	65.2	65.2	44	42.7	3	4	112	0.00	30.225 
12:25	65.2	65.2	65.2	40	40.3	3	6	112	0.00	30.228 
12:30	65.0	65.0	65.0	39	39.4	3	6	90	0.00	30.226 
12:35	65.6	65.6	65.6	41	41.3	2	6	112	0.00	30.225 
12:40	65.8	65.8	65.8	40	40.8	3	6	112	0.00	30.223 
12:45	66.3	66.3	66.3	38	39.9	2	6	112	0.00	30.223 
12:50	66.8	66.8	66.8	34	37.5	3	7	112	0.00	30.216 
12:55	66.9	66.9	66.9	39	41.1	3	7	112	0.00	30.212 
13:00	67.4	67.4	67.4	37	40.2	2	7	112	0.00	30.212 
13:05	67.6	67.6	67.6	35	39.0	4	6	112	0.00	30.210 
13:10	67.8	67.8	67.8	36	39.9	2	4	112	0.00	30.209 
13:15	67.9	67.9	67.9	36	40.0	3	6	112	0.00	30.205 
13:20	67.8	67.8	67.8	36	39.9	3	6	112	0.00	30.200 
13:25	67.9	67.9	67.9	38	41.3	4	7	112	0.00	30.197 
13:30	68.1	68.1	68.1	34	38.7	3	5	112	0.00	30.196 
13:35	68.1	68.1	68.1	35	39.4	3	6	112	0.00	30.195 
13:40	68.3	68.3	68.3	39	42.4	4	7	112	0.00	30.192 
13:45	68.6	68.6	68.6	35	39.8	3	7	90	0.00	30.188 
13:50	68.6	68.6	68.6	37	41.3	4	10	112	0.00	30.185 
13:55	68.6	68.6	68.6	38	42.0	4	10	112	0.00	30.182 
14:00	68.6	68.6	68.6	34	39.1	5	12	112	0.00	30.181 
14:05	68.6	68.6	68.6	39	42.6	3	7	112	0.00	30.180 
14:10	68.9	68.9	68.9	35	40.1	4	11	90	0.00	30.176 
14:15	69.1	69.1	69.1	39	43.1	5	11	90	0.00	30.172 
14:20	68.8	68.8	68.8	37	41.5	5	11	90	0.00	30.174 
14:25	68.9	68.9	68.9	39	42.9	3	7	112	0.00	30.176 
14:30	69.1	69.1	69.1	35	40.3	4	7	112	0.00	30.174 
14:35	69.3	69.3	69.3	38	42.6	3	9	90	0.00	30.171 
14:40	69.4	69.4	69.4	36	41.3	4	7	90	0.00	30.171 
14:45	69.4	69.4	69.4	37	42.0	2	6	68	0.00	30.170 
14:50	69.3	69.3	69.3	36	41.2	3	9	112	0.00	30.169 
14:55	69.4	69.4	69.4	38	42.7	2	5	112	0.00	30.168 
15:00	69.3	69.3	69.3	38	42.6	4	10	112	0.00	30.166 
15:05	69.4	69.4	69.4	40	44.0	3	6	90	0.00	30.164 
15:10	69.4	69.4	69.4	38	42.7	3	9	112	0.00	30.162 
15:15	69.8	69.8	69.8	36	41.6	2	5	68	0.00	30.153 
15:20	69.6	69.6	69.6	33	39.2	4	13	112	0.00	30.149 
15:25	69.4	69.4	69.4	34	39.8	4	9	112	0.00	30.149 
15:30	69.6	69.6	69.6	35	40.7	4	10	112	0.00	30.148 
15:35	69.6	69.6	69.6	33	39.2	3	7	112	0.00	30.146 
15:40	69.6	69.6	69.6	36	41.5	3	9	112	0.00	30.140 
15:45	69.4	69.4	69.4	35	40.6	4	10	112	0.00	30.145 
15:50	69.1	69.1	69.1	35	40.3	2	6	90	0.00	30.146 
15:55	68.6	68.6	68.6	33	38.3	3	6	112	0.00	30.142 
16:00	68.4	68.4	68.4	35	39.7	4	10	112	0.00	30.140 
16:05	68.3	68.3	68.3	34	38.8	3	7	112	0.00	30.135 
16:10	68.3	68.3	68.3	35	39.6	2	5	112	0.00	30.136 
16:15	68.4	68.4	68.4	34	38.9	3	11	112	0.00	30.136 
16:20	68.8	68.8	68.8	35	40.0	4	9	112	0.00	30.133 
16:25	68.9	68.9	68.9	33	38.6	4	9	112	0.00	30.132 
16:30	68.8	68.8	68.8	34	39.3	3	7	112	0.00	30.132 
16:35	68.3	68.3	68.3	34	38.8	3	5	112	0.00	30.133 
16:40	68.1	68.1	68.1	31	36.3	4	10	112	0.00	30.133 
16:45	67.9	67.9	67.9	33	37.7	3	6	90	0.00	30.132 
16:50	67.8	67.8	67.8	33	37.6	3	10	90	0.00	30.132 
16:55	67.8	67.8	67.8	34	38.4	2	5	112	0.00	30.131 
17:00	67.8	67.8	67.8	35	39.1	2	5	112	0.00	30.129 
17:05	67.8	67.8	67.8	34	38.4	2	6	90	0.00	30.130 
17:10	67.9	67.9	67.9	33	37.7	3	5	112	0.00	30.131 
17:15	68.1	68.1	68.1	30	35.5	3	6	90	0.00	30.131 
17:20	68.1	68.1	68.1	33	37.9	3	9	112	0.00	30.127 
17:25	68.1	68.1	68.1	28	33.8	4	10	90	0.00	30.126 
17:30	67.9	67.9	67.9	29	34.5	4	10	112	0.00	30.128 
17:35	67.9	67.9	67.9	30	35.3	4	7	112	0.00	30.129 
17:40	67.9	67.9	67.9	28	33.6	4	7	112	0.00	30.127 
17:45	67.8	67.8	67.8	28	33.5	4	6	90	0.00	30.126 
17:50	67.6	67.6	67.6	29	34.2	3	9	90	0.00	30.126 
17:55	67.3	67.3	67.3	29	33.9	4	9	90	0.00	30.125 
18:00	66.8	66.8	66.8	29	33.5	5	10	112	0.00	30.126 
18:05	66.3	66.3	66.3	29	33.1	5	9	112	0.00	30.127 
18:10	65.8	65.8	65.8	29	32.7	4	10	112	0.00	30.125 
18:15	65.2	65.2	65.2	29	32.1	5	11	112	0.00	30.127 
18:20	64.7	64.7	64.7	30	32.5	5	10	112	0.00	30.127 
18:25	64.3	64.3	64.3	31	33.0	4	6	90	0.00	30.129 
18:30	63.7	63.7	63.7	30	31.7	5	11	90	0.00	30.129 
18:35	63.2	63.2	63.2	31	32.1	4	8	112	0.00	30.133 
18:40	62.7	62.7	62.7	32	32.4	4	9	90	0.00	30.133 
18:45	62.3	62.3	62.3	33	32.8	3	7	112	0.00	30.133 
18:50	62.0	62.0	62.0	35	34.0	2	7	90	0.00	30.128 
18:55	61.5	61.5	61.5	34	32.9	3	9	90	0.00	30.123 
19:00	61.0	61.0	61.0	34	32.4	3	6	112	0.00	30.124 
19:05	60.7	60.7	60.7	33	31.4	2	5	112	0.00	30.122 
19:10	60.2	60.2	60.2	31	29.5	4	9	112	0.00	30.123 
19:15	59.9	59.9	59.9	33	30.7	3	5	112	0.00	30.123 
19:20	59.6	59.6	59.6	33	30.5	3	6	112	0.00	30.124 
19:25	59.2	59.2	59.2	34	30.8	2	4	90	0.00	30.124 
19:30	58.9	58.9	58.9	34	30.6	3	6	112	0.00	30.124 
19:35	58.6	58.6	58.6	33	29.6	4	7	112	0.00	30.122 
19:40	58.3	58.3	58.3	31	27.8	5	10	112	0.00	30.125 
19:45	58.1	58.1	58.1	32	28.4	5	9	112	0.00	30.125 
19:50	57.8	57.8	57.8	34	29.6	4	10	112	0.00	30.128 
19:55	57.5	57.5	57.5	34	29.4	5	10	112	0.00	30.128 
20:00	57.2	57.2	57.2	34	29.1	6	16	90	0.00	30.127 
20:05	56.9	56.9	56.9	35	29.5	5	11	90	0.00	30.123 
20:10	56.6	56.6	56.6	36	30.0	5	9	112	0.00	30.122 
20:15	56.2	56.2	56.2	36	29.6	4	11	90	0.00	30.123 
20:20	55.9	55.9	55.9	39	31.3	3	6	90	0.00	30.126 
20:25	55.6	55.6	55.6	39	31.0	3	7	112	0.00	30.132 
20:30	55.4	55.4	55.4	39	30.9	4	7	90	0.00	30.135 
20:35	55.1	55.1	55.1	38	30.0	4	7	112	0.00	30.139 
20:40	55.0	55.0	55.0	39	30.5	4	12	90	0.00	30.141 
20:45	54.7	54.7	54.7	38	29.6	3	7	90	0.00	30.146 
20:50	54.5	54.5	54.5	39	30.1	2	10	112	0.00	30.150 
20:55	54.5	54.5	54.5	39	30.1	4	10	90	0.00	30.150 
21:00	54.5	54.5	54.5	38	29.4	4	9	90	0.00	30.147 
21:05	54.4	54.4	54.4	38	29.3	3	7	112	0.00	30.135 
21:10	54.2	54.2	54.2	38	29.2	3	5	90	0.00	30.135 
21:15	54.2	54.2	54.2	37	28.5	4	6	112	0.00	30.135 
21:20	54.1	54.1	54.1	36	27.7	3	6	90	0.00	30.136 
21:25	53.9	53.9	53.9	35	26.9	3	6	112	0.00	30.136 
21:30	53.8	53.8	53.8	37	28.1	3	5	90	0.00	30.134 
21:35	53.6	53.6	53.6	36	27.3	3	6	90	0.00	30.131 
21:40	53.5	53.5	53.5	36	27.2	3	6	90	0.00	30.128 
21:45	53.5	53.5	53.5	36	27.2	3	7	90	0.00	30.125 
21:50	53.5	53.5	53.5	35	26.5	4	9	90	0.00	30.121 
21:55	53.3	53.3	53.3	36	27.0	3	8	112	0.00	30.122 
22:00	53.3	53.3	53.3	35	26.4	4	8	112	0.00	30.122 
22:05	53.2	53.2	53.2	35	26.3	4	11	112	0.00	30.117 
22:10	53.2	53.2	53.2	36	26.9	4	9	112	0.00	30.118 
22:15	53.1	53.1	53.1	36	26.9	3	9	90	0.00	30.121 
22:20	52.9	52.9	52.9	35	26.0	4	8	90	0.00	30.120 
22:25	52.9	52.9	52.9	36	26.7	3	6	90	0.00	30.124 
22:30	52.8	52.8	52.8	36	26.6	4	7	90	0.00	30.123 
22:35	52.8	52.8	52.8	37	27.3	3	6	112	0.00	30.121 
22:40	52.6	52.6	52.6	37	27.1	2	4	90	0.00	30.126 
22:45	52.6	52.6	52.6	37	27.1	2	5	90	0.00	30.127 
22:50	52.6	52.6	52.6	37	27.1	2	5	112	0.00	30.130 
22:55	52.6	52.6	52.6	37	27.1	3	5	90	0.00	30.131 
23:00	52.6	52.6	52.6	36	26.4	2	5	112	0.00	30.132 
23:05	52.5	52.5	52.5	38	27.6	2	5	112	0.00	30.127 
23:10	52.5	52.5	52.5	38	27.6	1	4	90	0.00	30.127 
23:15	52.3	52.3	52.3	38	27.5	2	7	90	0.00	30.125 
23:20	52.2	52.2	52.2	41	29.2	2	6	112	0.00	30.123 
23:25	52.0	52.0	52.0	42	29.6	3	9	112	0.00	30.123 
23:30	52.0	52.0	52.0	38	27.2	5	9	112	0.00	30.115 
23:35	52.0	52.0	52.0	38	27.2	4	9	112	0.00	30.111 
23:40	52.0	52.0	52.0	39	27.8	2	7	112	0.00	30.111 
23:45	51.9	51.9	51.9	42	29.5	3	7	112	0.00	30.110 
23:50	51.6	51.6	51.6	44	30.4	3	10	112	0.00	30.108 
23:55	51.3	51.3	51.3	44	30.1	3	10	90	0.00	30.110 

CoCoRaHS
IN-AL-39
A2 Web Hosting
Creative Commons License
GoDaddy
Look for:

loaded 2017-12-13 02:30:50 • last modified 2010-11-18 10:43:29
Privacy PolicyDisclaimer
• wx.awcolley.com is powered by PmWiki v.2002016 •
• all content (unless otherwise noted) © 2017 A W Colley